KIPT

Williamsport Regional Airport

Williamsport, Pennsylvania, USA
METAR KIPT 170754Z AUTO 28005KT 10SM OVC022 04/03 A2983 RMK AO2 SLP106 T00390028
Observed Flight Rules
Dec-17 @ 07:54 UTC (33 minutes ago) Marginal Visual Flight Rules
Wind Visibility Clouds
280° at 5 knots 10 miles
  • Overcast at 2,200' AGL
Temperatures Readings
Current 4°C / 39°F
Dewpoint 3°C / 37°F
Humidity 93%
Altimeter 29.83" Hg
Pressure 1010.6 hPa
Elevation 164
METAR KIPT 170754Z AUTO 28005KT 10SM OVC022 04/03 A2983 RMK AO2 SLP106 T00390028
Observed Flight Rules
Dec-17 @ 07:54 UTC
(33 minutes ago)
MVFR
Wind Visibility
280° at 5 knots 10 miles
Clouds
  • Overcast at 2,200' AGL
Temperature Dewpoint
4°C / 39°F 3°C / 37°F
Humidity Altimeter Pressure
93% 29.83" Hg 1010.6 hPa